Time;durP1;ratioP1;P1;durP2;ratioP2;P2;SDS_P1;SDS_P2;PMS_P1;PMS_P2;Temp;Humidity;BMP_temperature;BMP_pressure;BME280_temperature;BME280_humidity;BME280_pressure;Samples;Min_cycle;Max_cycle;Signal;HPM_P1;HPM_P2
2021/11/09 00:02:01;;;;;;;6.50;4.47;;;;;;;2.93;78.98;100287.13;5093913;28;20216;-83
2021/11/09 00:05:00;;;;;;;6.90;4.60;;;;;;;2.93;78.92;100295.91;5103146;22;20220;-83
2021/11/09 00:10:48;;;;;;;5.73;4.07;;;;;;;2.87;79.49;100303.63;5115405;28;20204;-83
2021/11/09 00:17:31;;;;;;;7.63;4.40;;;;;;;2.89;79.67;100302.47;5071287;28;20228;-82
2021/11/09 00:20:35;;;;;;;6.67;4.47;;;;;;;2.93;79.76;100313.59;5101865;22;20219;-83
2021/11/09 00:23:09;;;;;;;8.47;4.50;;;;;;;2.96;79.52;100308.81;5128234;22;20275;-82
2021/11/09 00:25:57;;;;;;;6.60;4.80;;;;;;;3.04;79.17;100315.97;5104455;22;20825;-83
2021/11/09 00:28:39;;;;;;;7.70;4.97;;;;;;;2.98;79.09;100301.56;5136566;22;20228;-82
2021/11/09 00:31:46;;;;;;;7.90;4.33;;;;;;;3.14;79.42;100316.72;5114685;28;20192;-83
2021/11/09 00:35:02;;;;;;;8.77;4.67;;;;;;;3.21;79.38;100315.13;5126895;22;20222;-82
2021/11/09 00:37:32;;;;;;;6.43;4.40;;;;;;;3.26;79.49;100325.25;5112886;28;20250;-83
2021/11/09 00:40:36;;;;;;;5.70;4.63;;;;;;;3.35;79.34;100317.22;5097134;28;20283;-83
2021/11/09 00:43:39;;;;;;;5.93;4.60;;;;;;;3.45;78.75;100317.09;5114348;28;20200;-83
2021/11/09 00:46:29;;;;;;;6.47;4.70;;;;;;;3.52;78.69;100320.75;5114335;28;20279;-83
2021/11/09 00:49:26;;;;;;;5.20;4.40;;;;;;;3.40;78.37;100299.03;4571923;23;15311270;-82
2021/11/09 00:51:59;;;;;;;6.63;4.60;;;;;;;3.54;78.36;100330.22;5100463;23;20236;-82
2021/11/09 00:55:23;;;;;;;8.73;4.63;;;;;;;3.71;78.37;100330.31;5108313;22;20220;-83
2021/11/09 00:58:07;;;;;;;6.27;4.57;;;;;;;3.75;77.90;100331.63;5104858;22;20276;-83
2021/11/09 01:01:02;;;;;;;8.37;4.53;;;;;;;3.68;77.86;100306.78;5077854;28;20229;-83
2021/11/09 01:03:56;;;;;;;7.33;4.37;;;;;;;3.81;77.89;100336.31;5091874;28;20292;-83
2021/11/09 01:06:49;;;;;;;6.13;4.10;;;;;;;3.86;77.96;100334.84;5088428;28;20610;-83
2021/11/09 01:09:43;;;;;;;7.03;4.73;;;;;;;3.88;78.01;100332.84;5093354;28;20217;-82
2021/11/09 01:12:28;;;;;;;10.90;5.33;;;;;;;3.88;77.83;100330.22;5075590;23;20229;-82
2021/11/09 01:15:08;;;;;;;7.47;4.70;;;;;;;3.92;78.43;100328.06;5020999;28;20231;-82
2021/11/09 01:18:01;;;;;;;7.33;4.53;;;;;;;3.97;77.98;100337.19;5180488;23;20255;-82
2021/11/09 01:21:00;;;;;;;6.23;4.23;;;;;;;4.02;78.17;100334.06;5112689;28;20219;-83
2021/11/09 01:23:34;;;;;;;7.03;4.30;;;;;;;4.00;78.06;100328.09;5095336;28;20228;-83
2021/11/09 01:26:23;;;;;;;6.40;4.37;;;;;;;4.00;78.06;100333.41;5110323;28;20270;-83
2021/11/09 01:29:07;;;;;;;6.87;4.20;;;;;;;4.11;78.10;100343.72;5095592;28;20223;-81
2021/11/09 01:35:29;;;;;;;7.00;3.77;;;;;;;4.24;77.93;100354.72;5054531;23;20403;-83
2021/11/09 01:38:09;;;;;;;6.87;3.97;;;;;;;4.25;77.85;100343.09;5090736;28;20209;-82
2021/11/09 01:40:49;;;;;;;6.13;4.00;;;;;;;4.32;77.76;100345.94;5091240;28;20207;-83
2021/11/09 01:43:36;;;;;;;7.87;4.30;;;;;;;4.16;77.51;100320.19;5097530;22;20258;-82
2021/11/09 01:46:21;;;;;;;7.20;4.60;;;;;;;4.43;76.96;100343.78;5040956;23;20234;-82
2021/11/09 01:49:07;;;;;;;8.50;4.20;;;;;;;4.44;77.55;100336.66;5071210;23;20251;-83
2021/11/09 01:51:48;;;;;;;7.33;4.17;;;;;;;4.56;77.15;100329.25;5096657;22;20223;-82
2021/11/09 01:54:22;;;;;;;6.70;4.00;;;;;;;4.53;77.04;100324.25;5072845;28;20224;-83
2021/11/09 01:56:51;;;;;;;5.33;4.17;;;;;;;4.62;76.85;100340.00;5090770;28;20238;-83
2021/11/09 01:59:39;;;;;;;5.83;3.80;;;;;;;4.67;76.99;100342.16;5091324;28;20227;-83
2021/11/09 02:02:49;;;;;;;5.53;4.03;;;;;;;4.67;76.11;100340.34;5090589;28;20288;-82
2021/11/09 02:05:28;;;;;;;7.57;4.30;;;;;;;4.65;76.38;100333.56;5040326;28;20246;-83
2021/11/09 02:08:13;;;;;;;7.03;3.80;;;;;;;4.70;76.70;100337.38;5090986;28;20238;-82
2021/11/09 02:11:16;;;;;;;6.47;4.13;;;;;;;4.75;76.23;100339.53;5090403;28;20221;-83
2021/11/09 02:13:56;;;;;;;6.80;4.30;;;;;;;4.68;76.67;100331.41;5096539;22;20249;-82
2021/11/09 02:16:52;;;;;;;6.73;3.83;;;;;;;4.69;76.93;100345.50;5090394;28;20220;-83
2021/11/09 02:20:04;;;;;;;5.70;4.33;;;;;;;4.66;76.52;100351.16;5087089;28;20680;-83
2021/11/09 02:22:40;;;;;;;6.13;4.10;;;;;;;4.69;76.99;100350.81;5095357;22;20223;-82
2021/11/09 02:25:41;;;;;;;7.63;4.10;;;;;;;4.62;77.32;100345.31;5098749;22;20229;-83
2021/11/09 02:28:54;;;;;;;6.67;4.33;;;;;;;4.63;77.03;100347.00;5091878;28;20292;-83
2021/11/09 02:31:36;;;;;;;8.73;4.10;;;;;;;4.59;77.33;100334.22;5076366;28;20299;-83
2021/11/09 02:34:36;;;;;;;5.97;4.10;;;;;;;4.66;77.65;100356.47;5080517;28;20311;-83
2021/11/09 02:37:28;;;;;;;5.20;3.97;;;;;;;4.52;76.94;100335.88;5086791;22;20594;-82
2021/11/09 02:39:59;;;;;;;5.57;4.10;;;;;;;4.60;77.28;100349.16;5080790;28;20236;-82
2021/11/09 02:42:53;;;;;;;6.43;4.07;;;;;;;4.66;77.24;100361.78;5097106;23;20579;-83
2021/11/09 02:45:39;;;;;;;6.67;4.00;;;;;;;4.59;77.29;100364.25;5091893;28;20238;-82
2021/11/09 02:48:54;;;;;;;6.23;4.10;;;;;;;4.65;77.38;100374.22;5092138;28;20306;-83
2021/11/09 02:54:46;;;;;;;5.63;3.83;;;;;;;4.63;77.45;100376.19;5095657;28;20226;-82
2021/11/09 02:57:56;;;;;;;7.43;4.00;;;;;;;4.62;77.49;100376.38;5081324;28;20299;-83
2021/11/09 03:04:11;;;;;;;5.70;3.50;;;;;;;4.51;77.87;100380.16;5093933;28;20727;-83
2021/11/09 03:06:50;;;;;;;6.83;4.17;;;;;;;4.52;77.94;100391.59;5095448;28;20692;-82
2021/11/09 03:12:35;;;;;;;7.87;3.90;;;;;;;4.42;77.59;100386.44;4975650;29;20205;-82
2021/11/09 03:15:27;;;;;;;7.13;4.23;;;;;;;4.47;78.00;100392.09;4976827;29;20204;-83
2021/11/09 03:18:41;;;;;;;7.27;4.23;;;;;;;4.48;77.33;100396.38;4979837;23;20517;31
2021/11/09 03:46:10;;;;;;;4.60;3.70;;;;;;;4.58;76.26;100426.25;5083064;28;20212;-82
2021/11/09 03:49:01;;;;;;;5.23;3.70;;;;;;;4.52;76.50;100416.31;5085255;28;20239;-83
2021/11/09 03:52:02;;;;;;;5.57;4.07;;;;;;;4.57;76.53;100424.63;5078144;28;20225;-82
2021/11/09 03:54:47;;;;;;;5.03;4.40;;;;;;;4.55;76.51;100434.56;5101830;22;20719;-82
2021/11/09 03:58:15;;;;;;;7.33;3.93;;;;;;;4.60;76.64;100445.53;5108310;22;20220;-82
2021/11/09 04:00:57;;;;;;;7.30;4.10;;;;;;;4.64;76.46;100446.84;5095618;28;20185;-83
2021/11/09 04:07:16;;;;;;;6.23;3.70;;;;;;;4.70;76.69;100446.22;5209324;22;20244;-82
2021/11/09 04:19:31;;;;;;;6.07;3.37;;;;;;;4.79;76.39;100461.19;5034329;23;20256;-83
2021/11/09 04:29:04;;;;;;;4.87;3.67;;;;;;;4.79;76.05;100447.91;5103135;22;20232;-82
2021/11/09 04:32:22;;;;;;;6.73;3.67;;;;;;;4.98;75.48;100460.06;5094262;28;20176;-83
2021/11/09 04:36:19;;;;;;;5.37;3.83;;;;;;;5.02;75.98;100474.66;5182669;22;20223;-83
2021/11/09 04:45:46;;;;;;;7.47;3.83;;;;;;;5.06;75.28;100469.84;5095856;28;20231;-83
2021/11/09 05:02:28;;;;;;;6.77;3.90;;;;;;;5.12;75.22;100488.63;5053509;28;20233;-83
2021/11/09 05:11:01;;;;;;;5.27;3.80;;;;;;;5.14;74.92;100504.38;5094633;28;20188;-83
2021/11/09 05:14:09;;;;;;;5.23;3.70;;;;;;;5.14;74.42;100502.56;5094675;28;20602;-83
2021/11/09 05:17:18;;;;;;;5.40;3.60;;;;;;;5.00;74.76;100487.25;5093684;22;20235;-83
2021/11/09 05:19:47;;;;;;;4.30;3.47;;;;;;;5.08;74.47;100513.88;5075688;28;20224;-83
2021/11/09 05:22:20;;;;;;;6.07;3.70;;;;;;;5.01;74.54;100501.38;5093244;28;20723;-83
2021/11/09 05:24:58;;;;;;;5.87;3.73;;;;;;;5.12;74.13;100515.19;5091796;28;20176;-83
2021/11/09 05:27:55;;;;;;;5.63;3.90;;;;;;;5.15;73.81;100527.31;5100824;22;20235;-83
2021/11/09 05:30:31;;;;;;;5.57;4.40;;;;;;;5.10;74.21;100516.34;5092834;28;20220;-83
2021/11/09 05:33:22;;;;;;;5.77;3.67;;;;;;;5.15;74.21;100522.00;5104872;22;20220;-83
2021/11/09 05:36:32;;;;;;;4.70;4.10;;;;;;;5.16;74.25;100524.50;5091616;28;20256;-84
2021/11/09 05:39:19;;;;;;;8.70;4.40;;;;;;;5.16;74.38;100532.47;5093668;28;20255;-83
2021/11/09 05:41:53;;;;;;;5.57;4.20;;;;;;;5.17;73.98;100538.63;5093452;28;20231;-83
2021/11/09 05:44:44;;;;;;;21.90;14.23;;;;;;;5.17;74.83;100544.75;5091112;28;20233;-83
2021/11/09 05:47:15;;;;;;;11.03;8.70;;;;;;;5.17;74.04;100544.75;5094286;28;20623;-82
2021/11/09 05:49:43;;;;;;;7.70;5.63;;;;;;;5.19;74.60;100548.06;5077395;28;20203;-83
2021/11/09 05:52:23;;;;;;;5.27;4.50;;;;;;;5.24;73.90;100552.91;5095159;23;20662;-83
2021/11/09 05:55:11;;;;;;;7.37;4.50;;;;;;;5.24;74.02;100558.22;5071838;28;20229;-82
2021/11/09 05:58:00;;;;;;;8.40;3.70;;;;;;;5.14;73.51;100538.91;5056650;28;20244;-82
2021/11/09 06:00:47;;;;;;;5.73;3.90;;;;;;;5.29;73.86;100580.66;5090940;28;20226;-82
2021/11/09 06:03:23;;;;;;;7.83;3.77;;;;;;;5.26;73.73;100557.06;5099099;22;20255;-83
2021/11/09 06:06:20;;;;;;;6.57;3.83;;;;;;;5.36;74.20;100572.88;5121477;22;20236;-82
2021/11/09 06:09:02;;;;;;;5.70;3.90;;;;;;;5.40;73.23;100582.19;5092273;28;20242;-81
2021/11/09 06:11:53;;;;;;;6.70;3.77;;;;;;;5.45;74.14;100592.31;5113737;22;20292;-81
2021/11/09 06:14:48;;;;;;;5.10;3.80;;;;;;;5.51;73.35;100591.63;5089831;28;20228;-81
2021/11/09 06:17:22;;;;;;;6.80;3.50;;;;;;;5.48;73.23;100581.34;5107881;22;20243;-81
2021/11/09 06:20:16;;;;;;;5.20;3.67;;;;;;;5.54;72.97;100594.00;5091533;28;20230;-82
2021/11/09 06:23:08;;;;;;;5.00;3.13;;;;;;;5.57;72.72;100597.16;5092294;28;20208;-81
2021/11/09 06:25:52;;;;;;;6.03;3.30;;;;;;;5.68;72.91;100603.97;5105477;22;20251;-82
2021/11/09 06:28:21;;;;;;;6.13;3.30;;;;;;;5.76;71.80;100619.94;5081422;28;20240;-82
2021/11/09 06:33:54;;;;;;;4.47;3.27;;;;;;;5.76;71.68;100612.78;5094786;22;20212;-82
2021/11/09 06:36:38;;;;;;;4.80;3.17;;;;;;;5.76;70.46;100610.13;5073179;28;20236;-81
2021/11/09 06:39:40;;;;;;;6.53;3.13;;;;;;;6.00;71.18;100635.97;5068618;23;20176;-79
2021/11/09 06:42:47;;;;;;;8.60;3.80;;;;;;;6.16;70.88;100651.91;5006659;28;20210;-82
2021/11/09 06:45:45;;;;;;;5.03;3.30;;;;;;;6.25;70.67;100652.75;5067521;22;20232;-83
2021/11/09 06:48:16;;;;;;;5.93;3.47;;;;;;;6.31;70.51;100665.38;5065484;23;20212;-83
2021/11/09 06:50:46;;;;;;;6.63;3.37;;;;;;;6.29;70.27;100632.78;5066713;23;20216;-82
2021/11/09 06:53:21;;;;;;;5.93;3.80;;;;;;;6.36;70.08;100646.25;5086269;23;20224;-82
2021/11/09 06:55:48;;;;;;;6.03;3.60;;;;;;;6.47;70.13;100651.25;5064228;28;20255;-82
2021/11/09 06:58:34;;;;;;;4.77;3.57;;;;;;;6.68;69.24;100678.16;5087383;23;20235;-82
2021/11/09 07:01:11;;;;;;;7.80;4.10;;;;;;;6.76;69.50;100670.16;5081423;28;20549;-82
2021/11/09 07:03:44;;;;;;;5.60;3.23;;;;;;;6.85;68.75;100687.78;5076022;28;20213;-82
2021/11/09 07:06:25;;;;;;;4.93;3.20;;;;;;;6.88;68.11;100681.28;5079851;23;20241;-82
2021/11/09 07:09:30;;;;;;;4.43;3.03;;;;;;;7.02;67.73;100689.41;5055296;28;20248;-82
2021/11/09 07:12:04;;;;;;;7.13;3.30;;;;;;;7.12;66.86;100693.72;5062866;23;20268;-82
2021/11/09 07:14:44;;;;;;;7.83;3.30;;;;;;;7.27;66.74;100706.16;5056434;28;20217;-82
2021/11/09 07:17:23;;;;;;;5.27;3.57;;;;;;;7.38;66.27;100707.59;5055952;28;20304;-82
2021/11/09 07:19:57;;;;;;;5.80;3.30;;;;;;;7.44;66.14;100704.25;5058752;28;20233;-82
2021/11/09 07:22:49;;;;;;;5.40;3.17;;;;;;;7.56;64.64;100710.84;5059040;28;20214;-81
2021/11/09 07:25:31;;;;;;;4.70;3.70;;;;;;;7.67;65.34;100715.81;5060402;28;20236;-81
2021/11/09 07:28:38;;;;;;;3.83;3.40;;;;;;;7.65;65.45;100691.13;5068145;23;20230;-82
2021/11/09 07:31:19;;;;;;;4.50;3.30;;;;;;;7.84;64.91;100725.38;5076155;23;20230;-82
2021/11/09 07:34:21;;;;;;;5.60;2.90;;;;;;;7.90;65.55;100731.84;5081207;23;20281;31
2021/11/09 07:37:43;;;;;;;5.07;3.20;;;;;;;7.99;64.49;100725.47;4998398;28;20234;-82
2021/11/09 07:40:23;;;;;;;4.60;2.87;;;;;;;8.10;64.85;100726.91;5132895;22;20237;-82
2021/11/09 07:43:46;;;;;;;4.93;3.10;;;;;;;7.96;64.34;100707.97;5061135;23;20259;-82
2021/11/09 07:46:43;;;;;;;4.03;2.90;;;;;;;8.27;63.68;100739.97;5055981;28;20233;-82
2021/11/09 07:49:24;;;;;;;4.73;3.17;;;;;;;8.45;63.50;100736.19;5055713;28;20213;-82
2021/11/09 07:52:31;;;;;;;5.40;3.30;;;;;;;8.57;63.32;100740.09;5054009;28;20230;-83
2021/11/09 07:55:32;;;;;;;3.77;2.80;;;;;;;8.58;63.46;100739.94;5053686;23;20707;-83
2021/11/09 07:58:11;;;;;;;6.60;3.10;;;;;;;8.58;63.39;100747.94;5058699;28;20217;-82
2021/11/09 08:01:46;;;;;;;6.10;2.93;;;;;;;8.79;63.28;100755.28;5075251;28;20234;-82
2021/11/09 08:04:29;;;;;;;5.47;2.90;;;;;;;8.83;62.92;100749.38;5090083;28;20225;-82
2021/11/09 08:07:24;;;;;;;4.30;3.00;;;;;;;9.01;62.15;100759.72;5095248;28;20187;-83
2021/11/09 08:10:08;;;;;;;5.67;3.20;;;;;;;9.14;62.07;100765.31;5094656;28;20655;-83
2021/11/09 08:12:53;;;;;;;6.77;2.93;;;;;;;9.31;61.38;100759.75;5094369;28;20230;-82
2021/11/09 08:15:26;;;;;;;5.77;3.03;;;;;;;9.33;61.24;100765.78;5110402;28;20267;-81
2021/11/09 08:18:08;;;;;;;7.10;3.10;;;;;;;9.45;60.91;100766.97;5150027;22;20259;-82
2021/11/09 08:21:01;;;;;;;4.43;3.00;;;;;;;9.58;60.16;100776.00;5086738;22;20236;-83
2021/11/09 08:23:49;;;;;;;5.87;3.33;;;;;;;9.72;59.39;100777.00;5069567;22;20235;-82
2021/11/09 08:26:41;;;;;;;10.10;3.00;;;;;;;9.91;59.54;100775.59;5126792;22;20219;-82
2021/11/09 08:29:15;;;;;;;5.47;3.00;;;;;;;9.98;59.11;100774.66;5085553;23;20231;-81
2021/11/09 08:31:48;;;;;;;5.07;3.00;;;;;;;9.97;58.75;100762.28;5078022;22;20237;-82
2021/11/09 08:34:19;;;;;;;5.87;2.83;;;;;;;10.19;58.78;100779.25;5112803;22;20224;-82
2021/11/09 08:37:04;;;;;;;5.03;3.20;;;;;;;10.34;58.66;100781.88;5251422;22;20178;-82
2021/11/09 08:39:44;;;;;;;5.40;2.67;;;;;;;10.38;57.73;100770.59;5090463;28;20229;-81
2021/11/09 08:42:34;;;;;;;3.73;2.60;;;;;;;10.44;57.32;100771.69;5075716;28;20319;-83
2021/11/09 08:48:24;;;;;;;5.13;2.40;;;;;;;10.55;56.23;100788.06;5109160;22;20581;-82
2021/11/09 08:51:08;;;;;;;5.43;2.87;;;;;;;10.52;56.28;100779.59;5108004;22;20212;-81
2021/11/09 08:54:21;;;;;;;4.53;2.90;;;;;;;10.52;56.45;100791.16;5086221;28;20228;-82
2021/11/09 08:57:10;;;;;;;5.70;2.77;;;;;;;10.56;56.59;100797.78;5092577;28;20229;-82
2021/11/09 09:06:44;;;;;;;6.03;3.00;;;;;;;10.48;56.90;100807.78;5089276;28;20255;-82
2021/11/09 09:09:25;;;;;;;3.93;2.80;;;;;;;10.32;56.48;100795.47;5055093;28;20708;-82
2021/11/09 09:11:58;;;;;;;6.07;2.83;;;;;;;10.31;56.67;100807.19;5092305;28;20233;-82
2021/11/09 09:14:48;;;;;;;4.77;2.60;;;;;;;10.38;56.29;100813.47;5092304;28;20216;-82
2021/11/09 09:17:34;;;;;;;6.90;2.90;;;;;;;10.40;56.86;100811.44;5075335;28;20224;-82
2021/11/09 09:20:45;;;;;;;2.87;2.47;;;;;;;10.42;57.04;100811.22;5079959;23;20244;-83
2021/11/09 09:23:24;;;;;;;4.10;2.70;;;;;;;10.41;56.82;100812.25;5072570;28;20240;-82
2021/11/09 09:29:07;;;;;;;4.73;2.50;;;;;;;10.43;56.47;100812.88;5073289;28;20249;-82
2021/11/09 09:55:37;;;;;;;5.17;3.00;;;;;;;10.78;55.99;100820.03;5089007;22;20320;-83
2021/11/09 09:58:07;;;;;;;4.87;3.20;;;;;;;10.85;55.46;100823.63;5091674;28;20239;-84
2021/11/09 10:00:42;;;;;;;5.23;3.17;;;;;;;10.93;55.14;100828.00;5108287;22;20213;-82
2021/11/09 10:03:41;;;;;;;4.73;2.87;;;;;;;10.91;55.57;100822.03;5098296;23;20228;-82
2021/11/09 10:06:16;;;;;;;5.33;2.90;;;;;;;10.97;55.17;100823.91;5093128;28;20228;-79
2021/11/09 10:08:53;;;;;;;4.43;3.40;;;;;;;10.95;55.10;100821.44;5094244;28;20251;-80
2021/11/09 10:11:38;;;;;;;6.03;3.37;;;;;;;10.95;55.53;100831.34;5098927;22;20224;-79
2021/11/09 10:14:34;;;;;;;4.67;3.20;;;;;;;11.04;55.42;100827.50;5072224;28;20215;-80
2021/11/09 10:17:47;;;;;;;4.73;3.63;;;;;;;11.03;55.25;100825.84;5069138;22;20211;-80
2021/11/09 10:21:12;;;;;;;3.93;3.10;;;;;;;11.22;54.92;100835.91;5092786;28;20232;-80
2021/11/09 10:24:07;;;;;;;4.30;3.20;;;;;;;11.22;54.07;100824.34;5093804;22;20225;-80
2021/11/09 10:26:43;;;;;;;4.00;3.10;;;;;;;11.32;54.41;100831.03;5073353;28;20241;-82
2021/11/09 10:29:18;;;;;;;4.60;2.90;;;;;;;11.29;53.55;100819.88;5080991;22;20253;-82
2021/11/09 10:31:56;;;;;;;3.23;2.67;;;;;;;11.37;52.71;100820.53;5075607;28;20208;-81
2021/11/09 10:34:31;;;;;;;3.87;2.50;;;;;;;11.56;52.79;100823.56;5075455;28;20231;-83
2021/11/09 10:37:24;;;;;;;4.63;3.20;;;;;;;11.40;52.40;100817.47;5113159;22;20228;-80
2021/11/09 10:40:40;;;;;;;5.03;3.20;;;;;;;11.53;52.11;100823.94;5096161;28;20223;-80
2021/11/09 10:43:16;;;;;;;4.13;2.90;;;;;;;11.49;51.79;100818.97;5117901;22;20223;-80
2021/11/09 10:45:55;;;;;;;4.87;3.23;;;;;;;11.57;51.94;100820.66;5077612;28;20230;-80
2021/11/09 10:48:29;;;;;;;4.43;3.03;;;;;;;11.77;52.42;100826.16;5069211;28;20220;-80
2021/11/09 10:51:04;;;;;;;3.97;3.00;;;;;;;11.83;52.40;100828.91;5117688;22;20250;-80
2021/11/09 10:54:04;;;;;;;4.57;3.10;;;;;;;11.95;52.77;100834.53;5107577;28;20231;-80
2021/11/09 10:56:45;;;;;;;3.80;2.77;;;;;;;12.10;51.56;100829.84;5197443;22;20242;-80
2021/11/09 11:05:28;;;;;;;5.23;2.53;;;;;;;12.51;49.26;100831.63;5100715;28;20291;-80
2021/11/09 11:08:09;;;;;;;3.33;2.60;;;;;;;12.49;48.99;100814.91;5110683;28;20208;-80
2021/11/09 11:11:29;;;;;;;3.13;2.50;;;;;;;12.65;48.34;100819.88;5114921;28;20196;-80
2021/11/09 11:14:21;;;;;;;3.77;2.77;;;;;;;12.73;48.77;100822.38;5114442;28;20236;-80
2021/11/09 11:17:45;;;;;;;4.33;3.23;;;;;;;12.44;49.62;100818.19;5115017;28;20234;-80
2021/11/09 11:20:30;;;;;;;4.17;2.80;;;;;;;12.58;49.70;100809.13;5132486;22;20288;-80
2021/11/09 11:23:31;;;;;;;3.23;2.40;;;;;;;12.54;49.23;100823.19;5111838;23;20208;-80
2021/11/09 11:26:22;;;;;;;2.63;2.40;;;;;;;12.40;48.85;100822.31;5131874;22;20662;-80
2021/11/09 11:29:47;;;;;;;3.70;2.60;;;;;;;12.51;48.18;100812.81;5124435;22;20204;-79
2021/11/09 11:33:08;;;;;;;3.63;2.10;;;;;;;12.44;46.86;100814.66;5125308;22;20234;-80
2021/11/09 11:35:54;;;;;;;3.30;2.10;;;;;;;12.64;46.68;100818.25;5124382;22;20307;-80
2021/11/09 11:39:02;;;;;;;3.10;2.40;;;;;;;12.71;46.73;100816.38;5113403;22;20224;-81
2021/11/09 11:41:52;;;;;;;4.77;2.27;;;;;;;12.70;46.93;100814.72;5104601;23;20236;-79
2021/11/09 11:44:38;;;;;;;4.07;2.70;;;;;;;12.97;46.60;100807.53;5137283;22;20235;-79
2021/11/09 11:48:25;;;;;;;3.10;2.37;;;;;;;12.93;46.44;100796.31;5154839;22;20216;-79
2021/11/09 11:51:39;;;;;;;4.03;2.80;;;;;;;13.02;47.13;100796.94;5117450;28;20223;-80
2021/11/09 11:54:11;;;;;;;4.23;2.63;;;;;;;13.00;46.21;100769.44;5195532;22;20267;-80
2021/11/09 11:56:53;;;;;;;5.40;2.97;;;;;;;13.09;45.83;100800.47;5072077;28;20247;-80
2021/11/09 11:59:46;;;;;;;4.67;2.60;;;;;;;12.88;46.02;100798.81;5089017;23;20229;-79
2021/11/09 12:06:52;;;;;;;3.63;2.27;;;;;;;13.00;46.36;100794.47;5247257;23;20221;-80
2021/11/09 12:10:17;;;;;;;4.53;2.40;;;;;;;13.06;46.50;100790.13;5095146;23;20231;-79
2021/11/09 12:13:09;;;;;;;2.93;2.20;;;;;;;13.10;46.51;100794.88;5105123;23;20244;-80
2021/11/09 12:17:05;;;;;;;2.97;2.03;;;;;;;12.98;45.24;100760.72;5097580;28;20265;-80
2021/11/09 12:20:18;;;;;;;2.83;2.27;;;;;;;13.22;44.12;100790.56;5036499;28;20258;-80
2021/11/09 12:23:21;;;;;;;2.90;1.93;;;;;;;13.11;44.03;100782.31;5037026;28;20199;-80
2021/11/09 12:26:07;;;;;;;2.20;1.80;;;;;;;13.17;44.25;100787.66;5090520;23;20229;-79
2021/11/09 12:28:58;;;;;;;3.93;2.50;;;;;;;13.27;43.78;100786.41;5107265;22;20304;-81
2021/11/09 12:31:40;;;;;;;2.47;2.27;;;;;;;13.23;44.17;100776.06;5113472;28;20232;-80
2021/11/09 12:35:06;;;;;;;4.60;2.50;;;;;;;13.13;44.83;100778.34;5109341;28;20231;-81
2021/11/09 12:38:13;;;;;;;4.37;3.10;;;;;;;13.19;44.66;100782.91;5112806;28;20222;-80
2021/11/09 12:40:56;;;;;;;3.20;2.90;;;;;;;12.92;45.02;100766.97;5103174;22;20223;-80
2021/11/09 12:43:46;;;;;;;3.50;2.70;;;;;;;12.96;45.25;100793.25;5076815;28;20250;-79
2021/11/09 12:46:46;;;;;;;4.20;2.90;;;;;;;13.11;45.06;100776.91;5129718;22;20208;-80
2021/11/09 12:49:45;;;;;;;5.00;2.40;;;;;;;13.18;44.59;100778.56;5111734;28;20227;-80
2021/11/09 12:52:23;;;;;;;3.20;2.90;;;;;;;13.14;44.14;100766.56;5128146;22;20575;-78
2021/11/09 12:54:55;;;;;;;4.43;2.63;;;;;;;13.24;44.51;100776.91;5098681;22;20251;-80
2021/11/09 12:57:33;;;;;;;3.43;2.73;;;;;;;13.28;44.98;100780.00;5113012;28;20239;-79
2021/11/09 13:00:39;;;;;;;3.83;3.10;;;;;;;13.30;44.61;100781.44;5171713;23;20251;-80
2021/11/09 13:03:36;;;;;;;3.10;2.80;;;;;;;13.27;44.72;100772.94;5054435;28;20194;-79
2021/11/09 13:07:08;;;;;;;3.77;2.77;;;;;;;13.25;44.68;100786.59;5071432;28;20962;-79
2021/11/09 13:09:48;;;;;;;3.57;3.07;;;;;;;13.27;44.59;100778.34;5028097;28;20772;-80
2021/11/09 13:12:19;;;;;;;4.07;2.63;;;;;;;13.38;44.95;100789.31;5070110;28;20251;-80
2021/11/09 13:15:18;;;;;;;4.17;3.40;;;;;;;13.38;45.20;100788.47;5064916;28;20233;-80
2021/11/09 13:18:12;;;;;;;5.10;3.40;;;;;;;13.29;44.94;100795.13;5070158;28;20248;-80
2021/11/09 13:20:52;;;;;;;4.07;3.13;;;;;;;13.29;45.00;100782.47;5066057;28;20561;-79
2021/11/09 13:23:38;;;;;;;3.90;3.20;;;;;;;13.16;45.21;100783.31;5067360;28;20237;-80
2021/11/09 13:26:14;;;;;;;5.53;3.20;;;;;;;13.17;46.09;100789.53;5067010;28;20225;-79
2021/11/09 13:28:45;;;;;;;4.70;3.20;;;;;;;13.07;46.12;100786.38;5063545;28;20233;-80
2021/11/09 13:31:30;;;;;;;4.37;3.00;;;;;;;13.07;46.18;100779.16;5066283;28;20573;-79
2021/11/09 13:34:20;;;;;;;3.13;2.50;;;;;;;13.10;46.22;100786.00;5062966;28;20236;-80
2021/11/09 13:37:07;;;;;;;4.30;2.50;;;;;;;13.05;45.46;100786.63;5063065;28;20290;-79
2021/11/09 13:39:36;;;;;;;3.50;2.20;;;;;;;13.06;44.60;100787.44;5063861;28;20315;-80
2021/11/09 13:42:08;;;;;;;2.23;2.00;;;;;;;13.07;43.80;100784.53;5062662;28;20655;-80
2021/11/09 13:44:37;;;;;;;1.60;1.50;;;;;;;12.99;43.56;100782.06;5052313;23;20229;-80
2021/11/09 13:47:06;;;;;;;2.67;1.80;;;;;;;12.96;44.14;100777.09;5064394;28;20209;-80
2021/11/09 13:50:05;;;;;;;3.40;2.20;;;;;;;13.06;43.97;100785.59;5076782;28;20232;-80
2021/11/09 13:52:32;;;;;;;2.50;2.30;;;;;;;12.98;44.05;100785.78;5052625;28;20225;-80
2021/11/09 13:55:01;;;;;;;2.83;2.03;;;;;;;12.91;44.08;100779.56;5066402;28;20221;-81
2021/11/09 13:57:38;;;;;;;1.80;1.50;;;;;;;12.84;44.12;100781.41;5065593;28;20217;-80
2021/11/09 14:00:46;;;;;;;1.70;1.60;;;;;;;12.87;43.31;100797.16;5087287;23;20232;-80
2021/11/09 14:03:34;;;;;;;3.03;1.67;;;;;;;12.85;42.97;100793.84;5098467;28;20234;-80
2021/11/09 14:12:53;;;;;;;4.97;3.10;;;;;;;12.70;44.01;100796.72;5036864;28;20243;-80
2021/11/09 14:15:20;;;;;;;2.40;2.20;;;;;;;12.62;43.33;100794.25;5064053;28;20206;-80
2021/11/09 14:17:47;;;;;;;2.80;2.20;;;;;;;12.52;43.93;100785.75;5050936;28;20232;-80
2021/11/09 14:20:20;;;;;;;2.23;1.70;;;;;;;12.48;44.00;100799.78;5064396;28;20589;-80
2021/11/09 14:23:07;;;;;;;1.70;1.50;;;;;;;12.34;43.44;100797.06;5049769;28;20239;-80
2021/11/09 14:25:41;;;;;;;7.60;1.73;;;;;;;12.27;43.38;100793.53;5063567;28;20280;-80
2021/11/09 14:28:09;;;;;;;4.23;1.50;;;;;;;12.02;43.58;100800.47;5064875;28;20185;-80
2021/11/09 14:30:45;;;;;;;40.13;28.27;;;;;;;11.96;43.69;100787.84;5093568;22;20227;-80
2021/11/09 14:33:21;;;;;;;23.63;16.00;;;;;;;11.89;44.15;100792.38;5101714;28;20220;-80
2021/11/09 14:35:54;;;;;;;11.33;8.90;;;;;;;11.71;44.12;100784.00;5044549;28;20300;-81
2021/11/09 14:38:24;;;;;;;4.37;3.80;;;;;;;11.75;44.70;100787.97;5047010;28;20232;-80
2021/11/09 14:41:11;;;;;;;4.20;1.80;;;;;;;11.62;45.32;100787.88;5062928;28;20220;-80
2021/11/09 14:43:41;;;;;;;2.40;1.60;;;;;;;11.48;45.71;100795.00;5046998;28;20229;-80
2021/11/09 14:46:26;;;;;;;2.43;2.23;;;;;;;11.51;46.09;100805.34;5053926;28;20221;-81
2021/11/09 14:49:08;;;;;;;4.43;1.87;;;;;;;11.31;46.53;100799.84;5066247;28;20185;-81
2021/11/09 14:51:44;;;;;;;2.63;1.57;;;;;;;11.21;46.99;100798.53;5067994;28;20239;-80
2021/11/09 14:54:23;;;;;;;2.27;2.07;;;;;;;11.22;47.44;100806.38;5050325;28;20295;-80
2021/11/09 14:56:50;;;;;;;3.80;1.70;;;;;;;10.98;47.93;100786.19;5035061;28;20229;-80
2021/11/09 14:59:17;;;;;;;3.77;2.13;;;;;;;10.74;48.97;100761.63;5067033;28;20252;-80
2021/11/09 15:02:00;;;;;;;3.87;2.83;;;;;;;10.63;49.38;100784.47;5034091;28;20320;-80
2021/11/09 15:07:37;;;;;;;6.50;3.30;;;;;;;10.48;50.13;100773.78;5060455;28;20221;-80
2021/11/09 15:10:34;;;;;;;3.13;2.40;;;;;;;10.37;50.96;100789.53;5073832;28;20225;-80
2021/11/09 15:13:30;;;;;;;3.07;2.03;;;;;;;10.13;51.60;100793.34;5073481;28;20262;-82
2021/11/09 15:27:31;;;;;;;7.53;3.47;;;;;;;9.49;53.73;100793.16;5098958;22;20230;-80
2021/11/09 15:30:08;;;;;;;6.47;3.50;;;;;;;9.35;54.46;100806.53;5115226;22;20254;-81
2021/11/09 15:32:37;;;;;;;4.93;3.60;;;;;;;9.21;55.10;100802.81;5082502;28;20219;-80
2021/11/09 15:35:39;;;;;;;4.37;3.30;;;;;;;9.09;55.38;100796.25;5097026;28;20217;-80
2021/11/09 15:38:00;;;;;;;5.30;3.50;;;;;;;9.08;55.76;100799.94;5119949;22;20234;-80
2021/11/09 15:40:31;;;;;;;6.23;3.77;;;;;;;9.01;55.92;100799.81;5131833;22;20224;-79
2021/11/09 15:43:03;;;;;;;8.23;5.00;;;;;;;8.92;56.11;100784.03;5076324;28;20236;-81
2021/11/09 15:45:39;;;;;;;10.60;4.97;;;;;;;8.86;56.60;100807.00;5097395;28;20215;-80
2021/11/09 15:48:09;;;;;;;11.07;5.20;;;;;;;8.75;57.15;100799.41;5109593;22;20224;-80
2021/11/09 15:50:37;;;;;;;10.97;4.87;;;;;;;8.63;57.35;100808.84;5099429;28;20480;-81